createdAt,value
2018-01-04T00:04:39.672Z,83.94
2018-01-04T00:10:43.284Z,85.65
2018-01-04T00:16:46.940Z,85.01
2018-01-04T00:22:51.468Z,85.82
2018-01-04T00:28:55.347Z,86.21
2018-01-04T00:34:58.909Z,85.51
2018-01-04T00:41:02.411Z,86.41
2018-01-04T00:47:06.006Z,87.84
2018-01-04T00:53:09.564Z,87.84
2018-01-04T00:59:13.053Z,88.58
2018-01-04T01:05:17.310Z,88.94
2018-01-04T01:11:20.781Z,88.30
2018-01-04T01:17:26.127Z,88.37
2018-01-04T01:23:30.073Z,87.46
2018-01-04T01:29:33.624Z,86.70
2018-01-04T01:35:37.222Z,86.61
2018-01-04T01:41:40.694Z,86.72
2018-01-04T01:47:44.335Z,87.48
2018-01-04T01:59:56.945Z,89.05
2018-01-04T02:06:00.655Z,88.40
2018-01-04T02:12:04.994Z,88.36
2018-01-04T02:18:26.270Z,88.50
2018-01-04T02:24:47.666Z,89.86
2018-01-04T02:31:09.578Z,90.08
2018-01-04T02:37:30.712Z,90.05
2018-01-04T02:43:52.803Z,89.99
2018-01-04T02:49:57.397Z,90.49
2018-01-04T02:56:01.017Z,90.08
2018-01-04T03:02:04.687Z,90.34
2018-01-04T03:08:08.260Z,90.22
2018-01-04T03:14:12.510Z,90.58
2018-01-04T03:20:15.949Z,90.39
2018-01-04T03:26:25.710Z,90.55
2018-01-04T03:32:34.883Z,90.49
2018-01-04T03:45:20.817Z,92.22
2018-01-04T03:51:29.894Z,91.48
2018-01-04T03:57:38.889Z,91.63
2018-01-04T04:03:42.567Z,91.63
2018-01-04T04:09:46.207Z,91.10
2018-01-04T04:15:50.018Z,91.48
2018-01-04T04:21:55.299Z,91.77
2018-01-04T04:27:58.989Z,92.15
2018-01-04T04:34:02.608Z,91.98
2018-01-04T04:40:06.141Z,90.62
2018-01-04T04:46:09.727Z,90.48
2018-01-04T04:52:13.213Z,90.67
2018-01-04T04:58:17.469Z,90.48
2018-01-04T05:04:21.146Z,89.70
2018-01-04T05:10:25.597Z,90.22
2018-01-04T05:16:29.539Z,89.80
2018-01-04T05:22:33.081Z,89.56
2018-01-04T05:28:36.875Z,89.32
2018-01-04T05:34:40.369Z,89.71
2018-01-04T05:40:44.008Z,89.56
2018-01-04T05:46:48.263Z,89.75
2018-01-04T05:52:51.788Z,89.55
2018-01-04T05:58:55.928Z,89.90
2018-01-04T06:04:59.672Z,89.79
2018-01-04T06:11:03.214Z,89.31
2018-01-04T06:17:06.883Z,87.90
2018-01-04T06:23:11.421Z,88.96
2018-01-04T06:29:14.959Z,87.04
2018-01-04T06:35:18.500Z,87.17
2018-01-04T06:41:22.182Z,86.71
2018-01-04T06:47:26.868Z,85.69
2018-01-04T06:53:30.783Z,84.71
2018-01-04T06:59:34.482Z,85.30
2018-01-04T07:05:38.001Z,86.02
2018-01-04T07:11:41.509Z,86.53
2018-01-04T07:17:45.202Z,86.41
2018-01-04T07:23:49.492Z,85.89
2018-01-04T07:29:53.225Z,85.38
2018-01-04T07:35:57.047Z,83.65
2018-01-04T07:42:00.660Z,83.72
2018-01-04T07:48:04.294Z,83.72
2018-01-04T07:54:08.564Z,83.42
2018-01-04T08:00:12.831Z,83.29
2018-01-04T08:06:17.102Z,83.86
2018-01-04T08:12:20.638Z,84.21
2018-01-04T08:18:25.766Z,83.28
2018-01-04T08:24:29.702Z,83.63
2018-01-04T08:30:33.214Z,83.93
2018-01-04T08:36:36.838Z,83.98
2018-01-04T08:42:41.430Z,84.05
2018-01-04T08:48:44.924Z,83.72
2018-01-04T08:54:48.516Z,83.45
2018-01-04T09:00:52.869Z,83.52
2018-01-04T09:06:57.572Z,84.32
2018-01-04T09:13:01.362Z,84.20
2018-01-04T09:19:05.053Z,83.71
2018-01-04T09:25:08.558Z,84.09
2018-01-04T09:31:13.623Z,84.00
2018-01-04T09:37:18.180Z,83.18
2018-01-04T09:43:21.754Z,83.61
2018-01-04T09:49:25.608Z,83.54
2018-01-04T09:55:30.236Z,83.25
2018-01-04T10:01:33.761Z,83.00
2018-01-04T10:07:37.276Z,82.63
2018-01-04T10:13:41.386Z,82.80
2018-01-04T10:19:45.695Z,82.96
2018-01-04T10:25:49.636Z,83.17
2018-01-04T10:31:54.306Z,82.60
2018-01-04T10:37:58.182Z,82.77
2018-01-04T10:44:01.669Z,82.92
2018-01-04T10:50:05.255Z,83.14
2018-01-04T10:56:08.746Z,83.32
2018-01-04T11:02:13.216Z,83.04
2018-01-04T11:08:17.463Z,82.66
2018-01-04T11:14:20.958Z,82.67
2018-01-04T11:20:24.721Z,82.83
2018-01-04T11:26:29.764Z,82.73
2018-01-04T11:32:33.332Z,82.49
2018-01-04T11:38:36.990Z,82.38
2018-01-04T11:44:40.614Z,81.71
2018-01-04T11:50:44.101Z,81.90
2018-01-04T11:56:47.654Z,81.52
2018-01-04T12:02:51.115Z,81.59
2018-01-04T12:08:54.932Z,81.60
2018-01-04T12:14:58.782Z,81.04
2018-01-04T12:21:02.356Z,80.28
2018-01-04T12:27:06.467Z,79.67
2018-01-04T12:33:10.830Z,78.77
2018-01-04T12:39:14.469Z,79.66
2018-01-04T12:45:18.128Z,79.75
2018-01-04T12:51:21.658Z,79.56
2018-01-04T12:57:25.436Z,79.89
2018-01-04T13:03:29.276Z,79.62
2018-01-04T13:09:32.870Z,79.01
2018-01-04T13:15:36.365Z,79.35
2018-01-04T13:21:40.110Z,79.26
2018-01-04T13:27:44.395Z,79.65
2018-01-04T13:33:48.654Z,79.25
2018-01-04T13:39:52.910Z,80.01
2018-01-04T13:45:57.217Z,79.80
2018-01-04T13:52:00.762Z,79.47
2018-01-04T13:58:05.011Z,80.23
2018-01-04T14:04:08.608Z,80.10
2018-01-04T14:10:12.185Z,79.90
2018-01-04T14:16:15.700Z,80.99
2018-01-04T14:22:19.975Z,81.25
2018-01-04T14:28:24.463Z,80.96
2018-01-04T14:34:28.709Z,81.35
2018-01-04T14:40:32.950Z,82.83
2018-01-04T14:46:36.431Z,83.16
2018-01-04T14:52:40.806Z,84.35
2018-01-04T14:58:44.300Z,84.88
2018-01-04T15:04:48.036Z,85.32
2018-01-04T15:10:51.634Z,85.83
2018-01-04T15:16:56.469Z,86.69
2018-01-04T15:23:00.347Z,87.46
2018-01-04T15:29:03.856Z,88.28
2018-01-04T15:35:07.403Z,89.07
2018-01-04T15:41:11.818Z,89.85
2018-01-04T15:47:16.234Z,90.69
2018-01-04T15:53:19.720Z,91.52
2018-01-04T15:59:23.197Z,91.97
2018-01-04T16:05:26.979Z,91.96
2018-01-04T16:11:30.589Z,92.70
2018-01-04T16:17:34.123Z,92.81
2018-01-04T16:23:37.821Z,93.07
2018-01-04T16:29:41.338Z,92.75
2018-01-04T16:35:44.856Z,93.20
2018-01-04T16:41:48.445Z,93.36
2018-01-04T16:47:51.910Z,93.20
2018-01-04T16:53:55.752Z,93.20
2018-01-04T16:59:59.527Z,93.19
2018-01-04T17:06:03.072Z,93.01
2018-01-04T17:12:06.682Z,93.21
2018-01-04T17:18:10.974Z,93.41
2018-01-04T17:24:14.887Z,93.58
2018-01-04T17:30:18.429Z,93.43
2018-01-04T17:36:22.168Z,93.49
2018-01-04T17:42:26.566Z,93.39
2018-01-04T17:48:30.133Z,93.37
2018-01-04T17:54:33.646Z,93.80
2018-01-04T18:00:37.151Z,93.88
2018-01-04T18:06:40.565Z,93.90
2018-01-04T18:12:44.102Z,93.85
2018-01-04T18:18:47.643Z,93.79
2018-01-04T18:24:51.934Z,93.83
2018-01-04T18:30:55.945Z,93.90
2018-01-04T18:36:59.710Z,94.03
2018-01-04T18:43:04.205Z,94.00
2018-01-04T18:49:07.813Z,94.04
2018-01-04T18:55:11.555Z,94.07
2018-01-04T19:01:15.054Z,94.15
2018-01-04T19:07:18.737Z,94.23
2018-01-04T19:13:22.387Z,93.87
2018-01-04T19:19:28.089Z,93.71
2018-01-04T19:25:31.571Z,93.78
2018-01-04T19:31:35.962Z,93.42
2018-01-04T19:37:40.321Z,93.18
2018-01-04T19:43:44.070Z,93.23
2018-01-04T19:49:47.640Z,93.40
2018-01-04T19:55:52.306Z,93.73
2018-01-04T20:01:56.160Z,93.52
2018-01-04T20:08:00.339Z,93.76
2018-01-04T20:14:04.610Z,94.13
2018-01-04T20:20:08.832Z,94.22
2018-01-04T20:26:12.284Z,94.40
2018-01-04T20:32:15.903Z,94.40
2018-01-04T20:38:20.129Z,92.95
2018-01-04T20:44:24.239Z,92.82
2018-01-04T20:50:27.811Z,92.32
2018-01-04T20:56:31.515Z,92.09
2018-01-04T21:02:35.105Z,91.84
2018-01-04T21:08:39.431Z,92.07
2018-01-04T21:14:43.016Z,91.04
2018-01-04T21:20:46.603Z,90.53
2018-01-04T21:26:50.269Z,90.16
2018-01-04T21:32:54.023Z,89.32
2018-01-04T21:38:58.804Z,88.70
2018-01-04T21:45:02.355Z,88.15
2018-01-04T21:51:05.897Z,86.46
2018-01-04T21:57:10.133Z,85.67
2018-01-04T22:03:13.612Z,84.85
2018-01-04T22:09:17.179Z,85.71
2018-01-04T22:15:21.549Z,86.18
2018-01-04T22:21:25.448Z,85.05
2018-01-04T22:27:29.375Z,82.88
2018-01-04T22:33:33.867Z,82.17
2018-01-04T22:39:38.091Z,79.61
2018-01-04T22:45:41.618Z,79.36
2018-01-04T22:51:45.119Z,78.06
2018-01-04T22:57:49.382Z,79.50
2018-01-04T23:03:54.009Z,80.82
2018-01-04T23:09:57.566Z,83.67
2018-01-04T23:16:01.067Z,83.38
2018-01-04T23:22:04.517Z,83.54
2018-01-04T23:28:08.142Z,82.98
2018-01-04T23:34:11.624Z,81.98
2018-01-04T23:40:15.232Z,81.57
2018-01-04T23:46:18.763Z,81.24
2018-01-04T23:52:22.396Z,80.45
2018-01-04T23:58:26.584Z,76.37
